sensor_id;sensor_type;location;lat;lon;timestamp;temperature;humidity
36752;DHT22;22718;49.494;7.036;2023-12-04T00:02:09;-3.00;99.90
36752;DHT22;22718;49.494;7.036;2023-12-04T00:05:17;-2.90;99.90
36752;DHT22;22718;49.494;7.036;2023-12-04T00:09:03;-3.00;99.90
36752;DHT22;22718;49.494;7.036;2023-12-04T00:12:31;-3.00;99.90
36752;DHT22;22718;49.494;7.036;2023-12-04T00:18:59;-3.00;99.90
36752;DHT22;22718;49.494;7.036;2023-12-04T00:22:04;-3.00;99.90
36752;DHT22;22718;49.494;7.036;2023-12-04T00:25:31;-3.00;99.90
36752;DHT22;22718;49.494;7.036;2023-12-04T00:28:41;-3.10;99.90
36752;DHT22;22718;49.494;7.036;2023-12-04T00:39:23;-3.10;99.90
36752;DHT22;22718;49.494;7.036;2023-12-04T00:42:54;-3.10;99.90
36752;DHT22;22718;49.494;7.036;2023-12-04T00:45:52;-3.10;99.90
36752;DHT22;22718;49.494;7.036;2023-12-04T00:52:36;-3.10;99.90
36752;DHT22;22718;49.494;7.036;2023-12-04T00:56:18;-3.20;99.90
36752;DHT22;22718;49.494;7.036;2023-12-04T00:59:33;-3.20;99.90
36752;DHT22;22718;49.494;7.036;2023-12-04T01:03:12;-3.20;99.90
36752;DHT22;22718;49.494;7.036;2023-12-04T01:06:21;-3.20;99.90
36752;DHT22;22718;49.494;7.036;2023-12-04T01:09:29;-3.20;99.90
36752;DHT22;22718;49.494;7.036;2023-12-04T01:12:22;-3.20;99.90
36752;DHT22;22718;49.494;7.036;2023-12-04T01:15:14;-3.30;99.90
36752;DHT22;22718;49.494;7.036;2023-12-04T01:17:55;-3.30;99.90
36752;DHT22;22718;49.494;7.036;2023-12-04T01:21:09;-3.30;99.90
36752;DHT22;22718;49.494;7.036;2023-12-04T01:23:59;-3.30;99.90
36752;DHT22;22718;49.494;7.036;2023-12-04T01:27:09;-3.30;99.90
36752;DHT22;22718;49.494;7.036;2023-12-04T01:30:22;-3.30;99.90
36752;DHT22;22718;49.494;7.036;2023-12-04T01:33:12;-3.30;99.90
36752;DHT22;22718;49.494;7.036;2023-12-04T01:36:19;-3.30;99.90
36752;DHT22;22718;49.494;7.036;2023-12-04T01:39:14;-3.20;99.90
36752;DHT22;22718;49.494;7.036;2023-12-04T01:42:09;-3.20;99.90
36752;DHT22;22718;49.494;7.036;2023-12-04T01:45:25;-3.20;99.90
36752;DHT22;22718;49.494;7.036;2023-12-04T01:51:52;-3.20;99.90
36752;DHT22;22718;49.494;7.036;2023-12-04T01:54:22;-3.20;99.90
36752;DHT22;22718;49.494;7.036;2023-12-04T01:57:46;-3.20;99.90
36752;DHT22;22718;49.494;7.036;2023-12-04T02:00:49;-3.10;99.90
36752;DHT22;22718;49.494;7.036;2023-12-04T02:03:45;-3.20;99.90
36752;DHT22;22718;49.494;7.036;2023-12-04T02:10:04;-3.10;99.90
36752;DHT22;22718;49.494;7.036;2023-12-04T02:12:53;-3.10;99.90
36752;DHT22;22718;49.494;7.036;2023-12-04T02:15:39;-3.20;99.90
36752;DHT22;22718;49.494;7.036;2023-12-04T02:18:53;-3.10;99.90
36752;DHT22;22718;49.494;7.036;2023-12-04T02:27:59;-3.10;99.90
36752;DHT22;22718;49.494;7.036;2023-12-04T02:31:03;-3.10;99.90
36752;DHT22;22718;49.494;7.036;2023-12-04T02:34:29;-3.10;99.90
36752;DHT22;22718;49.494;7.036;2023-12-04T02:37:26;-3.10;99.90
36752;DHT22;22718;49.494;7.036;2023-12-04T02:43:30;-3.00;99.90
36752;DHT22;22718;49.494;7.036;2023-12-04T02:46:40;-3.10;99.90
36752;DHT22;22718;49.494;7.036;2023-12-04T02:52:33;-3.10;99.90
36752;DHT22;22718;49.494;7.036;2023-12-04T02:55:55;-3.10;99.90
36752;DHT22;22718;49.494;7.036;2023-12-04T02:58:32;-3.00;99.90
36752;DHT22;22718;49.494;7.036;2023-12-04T03:01:59;-3.00;99.90
36752;DHT22;22718;49.494;7.036;2023-12-04T03:04:55;-3.00;99.90
36752;DHT22;22718;49.494;7.036;2023-12-04T03:07:52;-2.90;99.90
36752;DHT22;22718;49.494;7.036;2023-12-04T03:14:46;-2.90;99.90
36752;DHT22;22718;49.494;7.036;2023-12-04T03:18:00;-2.90;99.90
36752;DHT22;22718;49.494;7.036;2023-12-04T03:21:14;-2.90;99.90
36752;DHT22;22718;49.494;7.036;2023-12-04T03:24:33;-2.90;99.90
36752;DHT22;22718;49.494;7.036;2023-12-04T03:27:48;-2.80;99.90
36752;DHT22;22718;49.494;7.036;2023-12-04T03:31:07;-2.80;99.90
36752;DHT22;22718;49.494;7.036;2023-12-04T03:34:16;-2.80;99.90
36752;DHT22;22718;49.494;7.036;2023-12-04T03:37:29;-2.70;99.90
36752;DHT22;22718;49.494;7.036;2023-12-04T03:47:38;-2.70;99.90
36752;DHT22;22718;49.494;7.036;2023-12-04T03:50:49;-2.60;99.90
36752;DHT22;22718;49.494;7.036;2023-12-04T03:54:22;-2.50;99.90
36752;DHT22;22718;49.494;7.036;2023-12-04T03:58:03;-2.50;99.90
36752;DHT22;22718;49.494;7.036;2023-12-04T04:00:56;-2.50;99.90
36752;DHT22;22718;49.494;7.036;2023-12-04T04:10:59;-2.40;99.90
36752;DHT22;22718;49.494;7.036;2023-12-04T04:14:44;-2.40;99.90
36752;DHT22;22718;49.494;7.036;2023-12-04T04:24:48;-2.40;99.90
36752;DHT22;22718;49.494;7.036;2023-12-04T04:32:19;-2.40;99.90
36752;DHT22;22718;49.494;7.036;2023-12-04T04:46:28;-2.40;99.90
36752;DHT22;22718;49.494;7.036;2023-12-04T05:07:29;-2.40;99.90
36752;DHT22;22718;49.494;7.036;2023-12-04T05:14:19;-2.50;99.90
36752;DHT22;22718;49.494;7.036;2023-12-04T05:24:50;-2.40;99.90
36752;DHT22;22718;49.494;7.036;2023-12-04T05:28:44;-2.40;99.90
36752;DHT22;22718;49.494;7.036;2023-12-04T05:42:48;-2.40;99.90
36752;DHT22;22718;49.494;7.036;2023-12-04T05:49:33;-2.30;99.90
36752;DHT22;22718;49.494;7.036;2023-12-04T06:06:38;-2.30;99.90
36752;DHT22;22718;49.494;7.036;2023-12-04T06:20:06;-2.20;99.90
36752;DHT22;22718;49.494;7.036;2023-12-04T06:57:21;-2.00;99.90
36752;DHT22;22718;49.494;7.036;2023-12-04T07:21:33;-1.80;99.90
36752;DHT22;22718;49.494;7.036;2023-12-04T07:55:39;-1.10;99.90
36752;DHT22;22718;49.494;7.036;2023-12-04T07:59:47;-1.10;99.90
36752;DHT22;22718;49.494;7.036;2023-12-04T08:07:01;-1.20;99.90
36752;DHT22;22718;49.494;7.036;2023-12-04T08:20:49;-1.00;99.90
36752;DHT22;22718;49.494;7.036;2023-12-04T08:27:25;-0.90;99.90
36752;DHT22;22718;49.494;7.036;2023-12-04T16:55:29;1.40;99.90
36752;DHT22;22718;49.494;7.036;2023-12-04T16:57:55;1.40;99.90
36752;DHT22;22718;49.494;7.036;2023-12-04T17:00:26;1.50;99.90
36752;DHT22;22718;49.494;7.036;2023-12-04T17:06:20;1.50;99.90
36752;DHT22;22718;49.494;7.036;2023-12-04T17:15:56;1.60;99.90
36752;DHT22;22718;49.494;7.036;2023-12-04T17:22:26;1.70;99.90
36752;DHT22;22718;49.494;7.036;2023-12-04T17:25:19;1.60;99.90
36752;DHT22;22718;49.494;7.036;2023-12-04T17:28:13;1.60;99.90
36752;DHT22;22718;49.494;7.036;2023-12-04T17:31:16;1.70;99.90
36752;DHT22;22718;49.494;7.036;2023-12-04T17:37:26;1.70;99.90
36752;DHT22;22718;49.494;7.036;2023-12-04T17:40:24;1.70;99.90
36752;DHT22;22718;49.494;7.036;2023-12-04T17:43:51;1.70;99.90
36752;DHT22;22718;49.494;7.036;2023-12-04T17:46:39;1.70;99.90
36752;DHT22;22718;49.494;7.036;2023-12-04T17:49:32;1.70;99.90
36752;DHT22;22718;49.494;7.036;2023-12-04T17:52:02;1.70;99.90
36752;DHT22;22718;49.494;7.036;2023-12-04T17:54:28;1.70;99.90
36752;DHT22;22718;49.494;7.036;2023-12-04T17:57:00;1.70;99.90
36752;DHT22;22718;49.494;7.036;2023-12-04T17:59:37;1.70;99.90
36752;DHT22;22718;49.494;7.036;2023-12-04T18:02:09;1.70;99.90
36752;DHT22;22718;49.494;7.036;2023-12-04T18:04:37;1.70;99.90
36752;DHT22;22718;49.494;7.036;2023-12-04T18:07:04;1.70;99.90
36752;DHT22;22718;49.494;7.036;2023-12-04T18:09:31;1.70;99.90
36752;DHT22;22718;49.494;7.036;2023-12-04T18:11:57;1.70;99.90
36752;DHT22;22718;49.494;7.036;2023-12-04T18:14:24;1.80;99.90
36752;DHT22;22718;49.494;7.036;2023-12-04T18:16:51;1.80;99.90
36752;DHT22;22718;49.494;7.036;2023-12-04T18:19:18;1.80;99.90
36752;DHT22;22718;49.494;7.036;2023-12-04T18:21:49;1.80;99.90
36752;DHT22;22718;49.494;7.036;2023-12-04T18:24:18;1.80;99.90
36752;DHT22;22718;49.494;7.036;2023-12-04T18:26:44;1.80;99.90
36752;DHT22;22718;49.494;7.036;2023-12-04T18:29:12;1.80;99.90
36752;DHT22;22718;49.494;7.036;2023-12-04T18:31:40;1.80;99.90
36752;DHT22;22718;49.494;7.036;2023-12-04T18:34:15;1.80;99.90
36752;DHT22;22718;49.494;7.036;2023-12-04T18:36:46;1.80;99.90
36752;DHT22;22718;49.494;7.036;2023-12-04T18:39:17;1.80;99.90
36752;DHT22;22718;49.494;7.036;2023-12-04T18:41:48;1.80;99.90
36752;DHT22;22718;49.494;7.036;2023-12-04T18:44:15;1.80;99.90
36752;DHT22;22718;49.494;7.036;2023-12-04T18:46:41;1.80;99.90
36752;DHT22;22718;49.494;7.036;2023-12-04T18:49:11;1.80;99.90
36752;DHT22;22718;49.494;7.036;2023-12-04T18:51:39;1.80;99.90
36752;DHT22;22718;49.494;7.036;2023-12-04T18:54:14;1.80;99.90
36752;DHT22;22718;49.494;7.036;2023-12-04T18:56:46;1.80;99.90
36752;DHT22;22718;49.494;7.036;2023-12-04T18:59:14;1.70;99.90
36752;DHT22;22718;49.494;7.036;2023-12-04T19:01:40;1.80;99.90
36752;DHT22;22718;49.494;7.036;2023-12-04T19:04:05;1.80;99.90
36752;DHT22;22718;49.494;7.036;2023-12-04T19:06:32;1.70;99.90
36752;DHT22;22718;49.494;7.036;2023-12-04T19:09:00;1.70;99.90
36752;DHT22;22718;49.494;7.036;2023-12-04T19:11:26;1.70;99.90
36752;DHT22;22718;49.494;7.036;2023-12-04T19:13:56;1.80;99.90
36752;DHT22;22718;49.494;7.036;2023-12-04T19:16:24;1.80;99.90
36752;DHT22;22718;49.494;7.036;2023-12-04T19:18:51;1.80;99.90
36752;DHT22;22718;49.494;7.036;2023-12-04T19:21:19;1.80;99.90
36752;DHT22;22718;49.494;7.036;2023-12-04T19:23:45;1.80;99.90
36752;DHT22;22718;49.494;7.036;2023-12-04T19:26:10;1.80;99.90
36752;DHT22;22718;49.494;7.036;2023-12-04T19:28:38;1.80;99.90
36752;DHT22;22718;49.494;7.036;2023-12-04T19:31:04;1.80;99.90
36752;DHT22;22718;49.494;7.036;2023-12-04T19:33:30;1.80;99.90
36752;DHT22;22718;49.494;7.036;2023-12-04T19:35:56;1.80;99.90
36752;DHT22;22718;49.494;7.036;2023-12-04T19:38:25;1.80;99.90
36752;DHT22;22718;49.494;7.036;2023-12-04T19:40:51;1.80;99.90
36752;DHT22;22718;49.494;7.036;2023-12-04T19:43:16;1.90;99.90
36752;DHT22;22718;49.494;7.036;2023-12-04T19:45:42;1.90;99.90
36752;DHT22;22718;49.494;7.036;2023-12-04T19:48:08;1.90;99.90
36752;DHT22;22718;49.494;7.036;2023-12-04T19:50:37;1.90;99.90
36752;DHT22;22718;49.494;7.036;2023-12-04T19:53:05;2.00;99.90
36752;DHT22;22718;49.494;7.036;2023-12-04T19:55:31;1.90;99.90
36752;DHT22;22718;49.494;7.036;2023-12-04T19:57:57;1.90;99.90
36752;DHT22;22718;49.494;7.036;2023-12-04T20:00:22;1.90;99.90
36752;DHT22;22718;49.494;7.036;2023-12-04T20:02:53;1.90;99.90
36752;DHT22;22718;49.494;7.036;2023-12-04T20:05:19;1.90;99.90
36752;DHT22;22718;49.494;7.036;2023-12-04T20:07:45;1.90;99.90
36752;DHT22;22718;49.494;7.036;2023-12-04T20:10:10;2.00;99.90
36752;DHT22;22718;49.494;7.036;2023-12-04T20:12:40;2.00;99.90
36752;DHT22;22718;49.494;7.036;2023-12-04T20:15:06;1.90;99.90
36752;DHT22;22718;49.494;7.036;2023-12-04T20:17:35;2.00;99.90
36752;DHT22;22718;49.494;7.036;2023-12-04T20:20:01;2.00;99.90
36752;DHT22;22718;49.494;7.036;2023-12-04T20:22:27;2.00;99.90
36752;DHT22;22718;49.494;7.036;2023-12-04T20:24:54;2.00;99.90
36752;DHT22;22718;49.494;7.036;2023-12-04T20:27:22;2.00;99.90
36752;DHT22;22718;49.494;7.036;2023-12-04T20:29:48;2.10;99.90
36752;DHT22;22718;49.494;7.036;2023-12-04T20:32:17;2.10;99.90
36752;DHT22;22718;49.494;7.036;2023-12-04T20:34:43;2.10;99.90
36752;DHT22;22718;49.494;7.036;2023-12-04T20:37:08;2.20;99.90
36752;DHT22;22718;49.494;7.036;2023-12-04T20:39:42;2.10;99.90
36752;DHT22;22718;49.494;7.036;2023-12-04T20:42:08;2.10;99.90
36752;DHT22;22718;49.494;7.036;2023-12-04T20:44:34;2.10;99.90
36752;DHT22;22718;49.494;7.036;2023-12-04T20:47:02;2.10;99.90
36752;DHT22;22718;49.494;7.036;2023-12-04T20:49:32;2.10;99.90
36752;DHT22;22718;49.494;7.036;2023-12-04T20:52:01;2.10;99.90
36752;DHT22;22718;49.494;7.036;2023-12-04T20:54:27;2.10;99.90
36752;DHT22;22718;49.494;7.036;2023-12-04T20:56:55;2.10;99.90
36752;DHT22;22718;49.494;7.036;2023-12-04T20:59:26;2.10;99.90
36752;DHT22;22718;49.494;7.036;2023-12-04T21:01:54;2.10;99.90
36752;DHT22;22718;49.494;7.036;2023-12-04T21:04:27;2.10;99.90
36752;DHT22;22718;49.494;7.036;2023-12-04T21:06:53;2.10;99.90
36752;DHT22;22718;49.494;7.036;2023-12-04T21:09:18;2.20;99.90
36752;DHT22;22718;49.494;7.036;2023-12-04T21:11:44;2.20;99.90
36752;DHT22;22718;49.494;7.036;2023-12-04T21:14:11;2.10;99.90
36752;DHT22;22718;49.494;7.036;2023-12-04T21:16:39;2.20;99.90
36752;DHT22;22718;49.494;7.036;2023-12-04T21:19:07;2.20;99.90
36752;DHT22;22718;49.494;7.036;2023-12-04T21:21:33;2.20;99.90
36752;DHT22;22718;49.494;7.036;2023-12-04T21:24:00;2.30;99.90
36752;DHT22;22718;49.494;7.036;2023-12-04T21:26:26;2.30;99.90
36752;DHT22;22718;49.494;7.036;2023-12-04T21:28:52;2.30;99.90
36752;DHT22;22718;49.494;7.036;2023-12-04T21:31:18;2.30;99.90
36752;DHT22;22718;49.494;7.036;2023-12-04T21:33:43;2.30;99.90
36752;DHT22;22718;49.494;7.036;2023-12-04T21:36:10;2.30;99.90
36752;DHT22;22718;49.494;7.036;2023-12-04T21:38:35;2.30;99.90
36752;DHT22;22718;49.494;7.036;2023-12-04T21:41:05;2.30;99.90
36752;DHT22;22718;49.494;7.036;2023-12-04T21:43:40;2.40;99.90
36752;DHT22;22718;49.494;7.036;2023-12-04T21:46:07;2.40;99.90
36752;DHT22;22718;49.494;7.036;2023-12-04T21:48:32;2.40;99.90
36752;DHT22;22718;49.494;7.036;2023-12-04T21:50:58;2.40;99.90
36752;DHT22;22718;49.494;7.036;2023-12-04T21:53:24;2.40;99.90
36752;DHT22;22718;49.494;7.036;2023-12-04T21:55:50;2.40;99.90
36752;DHT22;22718;49.494;7.036;2023-12-04T21:58:16;2.40;99.90
36752;DHT22;22718;49.494;7.036;2023-12-04T22:00:41;2.40;99.90
36752;DHT22;22718;49.494;7.036;2023-12-04T22:03:07;2.40;99.90
36752;DHT22;22718;49.494;7.036;2023-12-04T22:05:35;2.50;99.90
36752;DHT22;22718;49.494;7.036;2023-12-04T22:08:01;2.50;99.90
36752;DHT22;22718;49.494;7.036;2023-12-04T22:10:30;2.50;99.90
36752;DHT22;22718;49.494;7.036;2023-12-04T22:12:56;2.50;99.90
36752;DHT22;22718;49.494;7.036;2023-12-04T22:15:21;2.50;99.90
36752;DHT22;22718;49.494;7.036;2023-12-04T22:17:47;2.50;99.90
36752;DHT22;22718;49.494;7.036;2023-12-04T22:20:15;2.50;99.90
36752;DHT22;22718;49.494;7.036;2023-12-04T22:22:40;2.50;99.90
36752;DHT22;22718;49.494;7.036;2023-12-04T22:25:06;2.50;99.90
36752;DHT22;22718;49.494;7.036;2023-12-04T22:27:32;2.60;99.90
36752;DHT22;22718;49.494;7.036;2023-12-04T22:30:02;2.50;99.90
36752;DHT22;22718;49.494;7.036;2023-12-04T22:32:31;2.50;99.90
36752;DHT22;22718;49.494;7.036;2023-12-04T22:35:00;2.60;99.90
36752;DHT22;22718;49.494;7.036;2023-12-04T22:37:25;2.70;99.90
36752;DHT22;22718;49.494;7.036;2023-12-04T22:39:51;2.60;99.90
36752;DHT22;22718;49.494;7.036;2023-12-04T22:42:17;2.60;99.90
36752;DHT22;22718;49.494;7.036;2023-12-04T22:44:42;2.60;99.90
36752;DHT22;22718;49.494;7.036;2023-12-04T22:47:08;2.60;99.90
36752;DHT22;22718;49.494;7.036;2023-12-04T22:49:34;2.60;99.90
36752;DHT22;22718;49.494;7.036;2023-12-04T22:51:59;2.60;99.90
36752;DHT22;22718;49.494;7.036;2023-12-04T22:54:28;2.60;99.90
36752;DHT22;22718;49.494;7.036;2023-12-04T22:56:56;2.70;99.90
36752;DHT22;22718;49.494;7.036;2023-12-04T22:59:22;2.60;99.90
36752;DHT22;22718;49.494;7.036;2023-12-04T23:01:51;2.70;99.90
36752;DHT22;22718;49.494;7.036;2023-12-04T23:04:17;2.70;99.90
36752;DHT22;22718;49.494;7.036;2023-12-04T23:06:43;2.70;99.90
36752;DHT22;22718;49.494;7.036;2023-12-04T23:09:12;2.70;99.90
36752;DHT22;22718;49.494;7.036;2023-12-04T23:11:38;2.70;99.90
36752;DHT22;22718;49.494;7.036;2023-12-04T23:14:04;2.70;99.90
36752;DHT22;22718;49.494;7.036;2023-12-04T23:16:31;2.70;99.90
36752;DHT22;22718;49.494;7.036;2023-12-04T23:18:57;2.70;99.90
36752;DHT22;22718;49.494;7.036;2023-12-04T23:21:23;2.70;99.90
36752;DHT22;22718;49.494;7.036;2023-12-04T23:23:48;2.70;99.90
36752;DHT22;22718;49.494;7.036;2023-12-04T23:26:14;2.70;99.90
36752;DHT22;22718;49.494;7.036;2023-12-04T23:28:40;2.80;99.90
36752;DHT22;22718;49.494;7.036;2023-12-04T23:31:08;2.70;99.90
36752;DHT22;22718;49.494;7.036;2023-12-04T23:33:36;2.70;99.90
36752;DHT22;22718;49.494;7.036;2023-12-04T23:36:02;2.80;99.90
36752;DHT22;22718;49.494;7.036;2023-12-04T23:38:29;2.80;99.90
36752;DHT22;22718;49.494;7.036;2023-12-04T23:40:55;2.90;99.90
36752;DHT22;22718;49.494;7.036;2023-12-04T23:43:21;2.90;99.90
36752;DHT22;22718;49.494;7.036;2023-12-04T23:45:46;2.90;99.90
36752;DHT22;22718;49.494;7.036;2023-12-04T23:48:15;3.00;99.90
36752;DHT22;22718;49.494;7.036;2023-12-04T23:50:41;3.10;99.90
36752;DHT22;22718;49.494;7.036;2023-12-04T23:53:06;3.10;99.90
36752;DHT22;22718;49.494;7.036;2023-12-04T23:55:32;3.30;99.90
36752;DHT22;22718;49.494;7.036;2023-12-04T23:57:58;3.40;99.90
